createdAt,value
2023-03-25T00:01:18.556Z,62.90
2023-03-25T00:03:50.902Z,62.60
2023-03-25T00:06:21.704Z,62.90
2023-03-25T00:08:51.954Z,63.00
2023-03-25T00:11:24.362Z,62.80
2023-03-25T00:13:54.377Z,62.80
2023-03-25T00:16:21.835Z,62.90
2023-03-25T00:18:51.713Z,62.90
2023-03-25T00:21:19.115Z,62.80
2023-03-25T00:23:49.069Z,62.70
2023-03-25T00:26:16.539Z,62.60
2023-03-25T00:28:46.207Z,62.90
2023-03-25T00:31:16.645Z,62.70
2023-03-25T00:33:44.096Z,62.70
2023-03-25T00:36:15.535Z,62.70
2023-03-25T00:38:48.873Z,62.60
2023-03-25T00:41:27.736Z,62.90
2023-03-25T00:43:57.405Z,62.70
2023-03-25T00:46:29.123Z,62.50
2023-03-25T00:48:58.425Z,62.60
2023-03-25T00:51:27.107Z,62.50
2023-03-25T00:53:56.225Z,62.40
2023-03-25T00:56:26.632Z,62.20
2023-03-25T00:58:56.373Z,62.10
2023-03-25T01:01:29.522Z,62.20
2023-03-25T01:04:00.191Z,62.10
2023-03-25T01:06:34.973Z,62.00
2023-03-25T01:09:07.437Z,61.70
2023-03-25T01:11:37.843Z,61.70
2023-03-25T01:14:08.651Z,61.80
2023-03-25T01:16:35.902Z,61.70
2023-03-25T01:19:03.684Z,61.80
2023-03-25T01:21:35.187Z,61.80
2023-03-25T01:24:07.741Z,61.80
2023-03-25T01:26:35.386Z,61.90
2023-03-25T01:29:05.033Z,61.80
2023-03-25T01:31:32.713Z,61.70
2023-03-25T01:34:03.308Z,61.70
2023-03-25T01:36:30.640Z,61.80
2023-03-25T01:38:59.951Z,61.80
2023-03-25T01:41:42.265Z,61.80
2023-03-25T01:44:14.049Z,61.70
2023-03-25T01:46:49.746Z,61.60
2023-03-25T01:49:23.997Z,61.60
2023-03-25T01:51:58.480Z,61.50
2023-03-25T01:54:28.322Z,61.30
2023-03-25T01:56:56.194Z,61.20
2023-03-25T01:59:27.337Z,61.20
2023-03-25T02:01:58.385Z,61.50
2023-03-25T02:04:40.475Z,61.50
2023-03-25T02:07:09.007Z,61.50
2023-03-25T02:09:38.104Z,61.50
2023-03-25T02:12:05.518Z,61.20
2023-03-25T02:14:39.213Z,61.50
2023-03-25T02:17:24.610Z,61.50
2023-03-25T02:20:16.510Z,61.20
2023-03-25T02:22:47.668Z,60.80
2023-03-25T02:25:35.601Z,61.20
2023-03-25T02:28:26.240Z,61.00
2023-03-25T02:31:28.539Z,61.00
2023-03-25T02:34:19.301Z,61.10
2023-03-25T02:37:03.343Z,61.40
2023-03-25T02:39:48.839Z,61.50
2023-03-25T02:42:25.608Z,61.10
2023-03-25T02:45:02.891Z,61.20
2023-03-25T02:47:47.392Z,61.70
2023-03-25T02:50:21.341Z,61.70
2023-03-25T02:52:54.366Z,61.70
2023-03-25T02:55:25.482Z,61.30
2023-03-25T02:57:57.186Z,61.30
2023-03-25T03:00:29.837Z,61.30
2023-03-25T03:02:59.589Z,61.30
2023-03-25T03:05:39.526Z,61.50
2023-03-25T03:08:25.465Z,61.20
2023-03-25T03:11:13.795Z,60.80
2023-03-25T03:13:41.079Z,60.70
2023-03-25T03:16:31.844Z,60.70
2023-03-25T03:19:38.360Z,60.50
2023-03-25T03:22:27.100Z,60.50
2023-03-25T03:25:20.279Z,60.20
2023-03-25T03:27:56.572Z,60.10
2023-03-25T03:30:35.014Z,60.00
2023-03-25T03:33:10.255Z,59.90
2023-03-25T03:35:49.976Z,59.90
2023-03-25T03:38:22.578Z,59.90
2023-03-25T03:40:55.231Z,60.10
2023-03-25T03:43:39.346Z,60.10
2023-03-25T03:46:23.581Z,59.80
2023-03-25T03:48:55.919Z,59.80
2023-03-25T03:51:54.910Z,59.90
2023-03-25T03:54:35.898Z,59.90
2023-03-25T03:57:14.088Z,59.80
2023-03-25T04:00:08.577Z,59.90
2023-03-25T04:02:43.030Z,59.90
2023-03-25T04:05:22.024Z,59.60
2023-03-25T04:08:02.604Z,59.80
2023-03-25T04:10:45.601Z,59.90
2023-03-25T04:13:18.646Z,59.60
2023-03-25T04:15:46.595Z,59.80
2023-03-25T04:18:13.951Z,59.40
2023-03-25T04:20:45.020Z,59.30
2023-03-25T04:23:18.432Z,59.20
2023-03-25T04:26:04.147Z,59.10
2023-03-25T04:28:33.758Z,59.00
2023-03-25T04:31:06.338Z,59.00
2023-03-25T04:33:46.687Z,59.10
2023-03-25T04:36:16.502Z,59.00
2023-03-25T04:38:47.206Z,58.80
2023-03-25T04:41:15.091Z,58.80
2023-03-25T04:43:45.214Z,58.90
2023-03-25T04:46:15.488Z,58.70
2023-03-25T04:48:45.186Z,58.70
2023-03-25T04:51:14.129Z,58.60
2023-03-25T04:53:44.037Z,58.70
2023-03-25T04:56:19.136Z,58.60
2023-03-25T04:58:48.932Z,58.50
2023-03-25T05:01:38.056Z,58.50
2023-03-25T05:04:06.212Z,58.30
2023-03-25T05:06:41.861Z,58.20
2023-03-25T05:09:16.180Z,58.30
2023-03-25T05:11:46.376Z,58.30
2023-03-25T05:14:16.253Z,58.30
2023-03-25T05:16:44.756Z,58.00
2023-03-25T05:19:12.643Z,58.00
2023-03-25T05:21:41.121Z,58.00
2023-03-25T05:24:10.338Z,58.10
2023-03-25T05:26:39.764Z,57.90
2023-03-25T05:29:10.572Z,57.90
2023-03-25T05:31:37.902Z,57.90
2023-03-25T05:34:06.535Z,57.60
2023-03-25T05:36:34.154Z,57.80
2023-03-25T05:39:04.667Z,57.70
2023-03-25T05:41:39.090Z,57.60
2023-03-25T05:44:08.600Z,57.80
2023-03-25T05:46:38.946Z,57.70
2023-03-25T05:49:06.797Z,57.50
2023-03-25T05:51:37.908Z,57.50
2023-03-25T05:54:11.454Z,57.20
2023-03-25T05:56:40.271Z,57.20
2023-03-25T05:59:10.553Z,57.10
2023-03-25T06:01:43.259Z,57.00
2023-03-25T06:04:13.583Z,57.20
2023-03-25T06:06:43.472Z,57.20
2023-03-25T06:09:12.847Z,57.30
2023-03-25T06:11:44.844Z,57.30
2023-03-25T06:14:12.264Z,56.90
2023-03-25T06:16:44.120Z,56.80
2023-03-25T06:19:11.398Z,56.80
2023-03-25T06:21:38.889Z,56.50
2023-03-25T06:24:07.052Z,56.70
2023-03-25T06:26:34.342Z,56.30
2023-03-25T06:29:02.718Z,56.50
2023-03-25T06:31:33.960Z,56.20
2023-03-25T06:34:01.822Z,56.20
2023-03-25T06:36:34.814Z,56.80
2023-03-25T06:39:02.261Z,56.40
2023-03-25T06:41:29.564Z,56.20
2023-03-25T06:44:01.173Z,56.00
2023-03-25T06:46:28.519Z,55.90
2023-03-25T06:48:55.876Z,55.80
2023-03-25T06:51:23.940Z,55.60
2023-03-25T06:53:54.150Z,55.50
2023-03-25T06:56:23.968Z,55.50
2023-03-25T06:58:51.200Z,55.40
2023-03-25T07:01:18.679Z,55.40
2023-03-25T07:03:46.065Z,55.50
2023-03-25T07:06:20.788Z,55.60
2023-03-25T07:08:48.552Z,55.80
2023-03-25T07:11:22.133Z,56.00
2023-03-25T07:13:54.017Z,55.90
2023-03-25T07:16:22.592Z,55.80
2023-03-25T07:18:52.513Z,55.80
2023-03-25T07:21:22.693Z,55.70
2023-03-25T07:23:54.871Z,55.40
2023-03-25T07:26:24.717Z,55.50
2023-03-25T07:28:52.012Z,55.50
2023-03-25T07:31:19.454Z,55.90
2023-03-25T07:33:47.186Z,55.60
2023-03-25T07:36:14.650Z,55.90
2023-03-25T07:38:42.016Z,56.20
2023-03-25T07:41:12.063Z,55.90
2023-03-25T07:43:39.896Z,55.70
2023-03-25T07:46:07.475Z,55.20
2023-03-25T07:48:37.399Z,54.50
2023-03-25T07:51:10.741Z,54.60
2023-03-25T07:53:39.510Z,54.60
2023-03-25T07:56:10.099Z,53.70
2023-03-25T07:58:38.091Z,53.30
2023-03-25T08:01:09.359Z,52.90
2023-03-25T08:03:40.239Z,52.40
2023-03-25T08:06:13.676Z,52.80
2023-03-25T08:08:41.724Z,52.20
2023-03-25T08:11:16.091Z,51.80
2023-03-25T08:13:45.853Z,51.70
2023-03-25T08:16:14.608Z,51.70
2023-03-25T08:18:45.111Z,52.20
2023-03-25T08:21:15.230Z,51.60
2023-03-25T08:23:44.571Z,51.90
2023-03-25T08:26:11.888Z,51.50
2023-03-25T08:28:41.655Z,51.70
2023-03-25T08:31:11.917Z,51.40
2023-03-25T08:33:41.180Z,52.10
2023-03-25T08:36:13.920Z,51.40
2023-03-25T08:38:42.121Z,51.20
2023-03-25T08:41:09.632Z,51.60
2023-03-25T08:43:37.053Z,51.30
2023-03-25T08:46:09.213Z,51.30
2023-03-25T08:48:38.106Z,51.30
2023-03-25T08:51:08.165Z,51.50
2023-03-25T08:53:37.273Z,51.60
2023-03-25T08:56:04.984Z,51.50
2023-03-25T08:58:32.316Z,51.90
2023-03-25T09:01:02.476Z,50.80
2023-03-25T09:03:33.725Z,51.10
2023-03-25T09:06:08.333Z,50.60
2023-03-25T09:08:42.117Z,50.00
2023-03-25T09:11:09.475Z,50.90
2023-03-25T09:13:39.154Z,50.80
2023-03-25T09:16:09.862Z,50.50
2023-03-25T09:18:37.294Z,50.50
2023-03-25T09:21:05.554Z,50.00
2023-03-25T09:23:35.494Z,49.50
2023-03-25T09:26:05.328Z,49.20
2023-03-25T09:28:35.486Z,48.70
2023-03-25T09:31:03.362Z,47.70
2023-03-25T09:33:30.996Z,47.70
2023-03-25T09:35:58.339Z,48.20
2023-03-25T09:38:28.319Z,47.60
2023-03-25T09:40:56.086Z,47.40
2023-03-25T09:43:40.250Z,45.70
2023-03-25T09:46:09.344Z,46.20
2023-03-25T09:48:42.574Z,45.20
2023-03-25T09:51:36.019Z,45.40
2023-03-25T09:54:25.977Z,45.60
2023-03-25T09:57:02.029Z,44.60
2023-03-25T09:59:49.221Z,44.90
2023-03-25T10:02:57.517Z,45.50
2023-03-25T10:05:47.938Z,45.60
2023-03-25T10:08:34.162Z,44.20
2023-03-25T10:11:11.179Z,45.80
2023-03-25T10:14:02.675Z,44.80
2023-03-25T10:16:48.499Z,44.70
2023-03-25T10:19:21.192Z,44.70
2023-03-25T10:21:57.941Z,45.10
2023-03-25T10:24:31.797Z,44.90
2023-03-25T10:27:41.928Z,45.30
2023-03-25T10:30:15.864Z,45.60
2023-03-25T10:32:52.440Z,44.90
2023-03-25T10:35:32.852Z,45.30
2023-03-25T10:38:24.295Z,45.70
2023-03-25T10:41:11.792Z,45.30
2023-03-25T10:43:46.557Z,46.30
2023-03-25T10:46:47.677Z,44.80
2023-03-25T10:49:22.259Z,44.90
2023-03-25T10:51:54.734Z,45.30
2023-03-25T10:54:25.851Z,44.50
2023-03-25T10:56:55.866Z,44.40
2023-03-25T10:59:25.913Z,44.10
2023-03-25T11:01:54.642Z,44.30
2023-03-25T11:04:36.427Z,43.20
2023-03-25T11:07:13.589Z,43.50
2023-03-25T11:09:44.092Z,43.80
2023-03-25T11:12:30.190Z,44.10
2023-03-25T11:15:06.470Z,43.30
2023-03-25T11:17:35.272Z,44.90
2023-03-25T11:20:11.078Z,43.70
2023-03-25T11:22:45.024Z,44.20
2023-03-25T11:25:23.650Z,43.10
2023-03-25T11:27:59.879Z,44.70
2023-03-25T11:30:27.231Z,43.90
2023-03-25T11:33:20.809Z,42.80
2023-03-25T11:35:51.392Z,43.10
2023-03-25T11:38:32.938Z,42.10
2023-03-25T11:41:00.548Z,41.80
2023-03-25T11:43:36.450Z,41.80
2023-03-25T11:46:19.282Z,42.40
2023-03-25T11:48:47.286Z,41.40
2023-03-25T11:51:25.151Z,43.20
2023-03-25T11:53:59.716Z,41.70
2023-03-25T11:56:36.064Z,42.70
2023-03-25T11:59:08.180Z,42.90
2023-03-25T12:01:45.562Z,42.90
2023-03-25T12:04:22.971Z,42.80
2023-03-25T12:07:10.222Z,43.20
2023-03-25T12:09:38.372Z,44.30
2023-03-25T12:12:35.477Z,44.20
2023-03-25T12:15:12.035Z,42.80
2023-03-25T12:17:54.333Z,41.70
2023-03-25T12:20:59.081Z,42.10
2023-03-25T12:23:41.677Z,41.60
2023-03-25T12:26:16.833Z,40.40
2023-03-25T12:28:44.810Z,41.50
2023-03-25T12:31:49.781Z,41.30
2023-03-25T12:34:29.094Z,41.30
2023-03-25T12:37:01.793Z,41.40
2023-03-25T12:39:51.305Z,41.30
2023-03-25T12:42:42.462Z,40.90
2023-03-25T12:45:31.516Z,41.20
2023-03-25T12:48:08.069Z,41.50
2023-03-25T12:50:52.776Z,41.20
2023-03-25T12:53:56.852Z,41.60
2023-03-25T12:57:07.861Z,42.40
2023-03-25T12:59:41.814Z,42.70
2023-03-25T13:02:24.130Z,42.90
2023-03-25T13:05:13.103Z,42.80
2023-03-25T13:08:23.174Z,43.30
2023-03-25T13:11:02.812Z,43.40
2023-03-25T13:13:35.921Z,43.70
2023-03-25T13:16:09.594Z,43.10
2023-03-25T13:19:02.882Z,42.90
2023-03-25T13:21:39.728Z,42.50
2023-03-25T13:24:14.744Z,43.30
2023-03-25T13:26:44.884Z,42.80
2023-03-25T13:29:43.002Z,42.50
2023-03-25T13:32:19.291Z,42.20
2023-03-25T13:34:52.230Z,42.30
2023-03-25T13:37:45.290Z,42.50
2023-03-25T13:40:43.322Z,43.00
2023-03-25T13:43:41.391Z,43.20
2023-03-25T13:46:21.073Z,43.10
2023-03-25T13:49:17.652Z,42.50
2023-03-25T13:51:45.494Z,43.30
2023-03-25T13:54:23.073Z,42.40
2023-03-25T13:57:26.046Z,43.70
2023-03-25T14:00:28.817Z,42.60
2023-03-25T14:03:04.398Z,42.70
2023-03-25T14:06:11.409Z,42.60
2023-03-25T14:08:50.358Z,42.60
2023-03-25T14:11:35.007Z,42.80
2023-03-25T14:14:12.982Z,43.20
2023-03-25T14:16:51.185Z,42.70
2023-03-25T14:19:25.938Z,43.00
2023-03-25T14:21:53.597Z,42.80
2023-03-25T14:24:31.888Z,42.20
2023-03-25T14:27:32.563Z,42.00
2023-03-25T14:30:05.807Z,42.70
2023-03-25T14:32:33.239Z,42.00
2023-03-25T14:35:34.431Z,41.70
2023-03-25T14:38:07.790Z,41.70
2023-03-25T14:40:54.761Z,41.20
2023-03-25T14:43:33.113Z,40.90
2023-03-25T14:46:18.594Z,40.80
2023-03-25T14:48:50.339Z,40.60
2023-03-25T14:51:23.367Z,40.60
2023-03-25T14:53:54.337Z,42.10
2023-03-25T14:56:33.273Z,41.20
2023-03-25T14:59:08.160Z,41.10
2023-03-25T15:01:40.447Z,41.40
2023-03-25T15:04:13.349Z,41.20
2023-03-25T15:06:41.835Z,41.40
2023-03-25T15:09:16.646Z,41.10
2023-03-25T15:11:53.270Z,41.00
2023-03-25T15:14:27.171Z,41.10
2023-03-25T15:17:09.063Z,41.20
2023-03-25T15:20:10.146Z,41.10
2023-03-25T15:22:38.700Z,41.60
2023-03-25T15:25:26.781Z,41.50
2023-03-25T15:28:13.025Z,41.50
2023-03-25T15:31:06.889Z,41.30
2023-03-25T15:34:09.230Z,41.70
2023-03-25T15:37:33.114Z,41.20
2023-03-25T15:40:20.631Z,41.80
2023-03-25T15:42:59.608Z,41.80
2023-03-25T15:45:41.861Z,41.40
2023-03-25T15:48:47.487Z,42.10
2023-03-25T15:51:49.255Z,42.70
2023-03-25T15:54:51.334Z,42.90
2023-03-25T15:57:37.521Z,46.70
2023-03-25T16:00:42.532Z,47.80
2023-03-25T16:03:20.876Z,48.00
2023-03-25T16:05:53.936Z,48.20
2023-03-25T16:08:45.718Z,48.70
2023-03-25T16:11:24.086Z,48.80
2023-03-25T16:14:16.342Z,48.80
2023-03-25T16:16:58.184Z,48.90
2023-03-25T16:19:49.595Z,49.20
2023-03-25T16:22:22.679Z,49.40
2023-03-25T16:24:54.432Z,49.20
2023-03-25T16:27:32.010Z,49.20
2023-03-25T16:30:04.155Z,48.80
2023-03-25T16:32:35.238Z,48.80
2023-03-25T16:35:06.072Z,48.70
2023-03-25T16:37:34.071Z,48.90
2023-03-25T16:40:07.986Z,48.60
2023-03-25T16:42:36.633Z,48.80
2023-03-25T16:45:05.758Z,48.70
2023-03-25T16:47:36.960Z,48.70
2023-03-25T16:50:07.593Z,48.80
2023-03-25T16:52:35.611Z,49.20
2023-03-25T16:55:04.945Z,49.20
2023-03-25T16:57:39.498Z,49.70
2023-03-25T17:00:25.646Z,50.00
2023-03-25T17:02:54.159Z,49.80
2023-03-25T17:05:25.528Z,49.60
2023-03-25T17:08:08.139Z,49.90
2023-03-25T17:11:04.251Z,49.80
2023-03-25T17:13:41.881Z,49.80
2023-03-25T17:16:09.995Z,50.50
2023-03-25T17:18:40.340Z,51.10
2023-03-25T17:21:11.715Z,53.40
2023-03-25T17:23:41.962Z,57.30
2023-03-25T17:26:14.010Z,58.50
2023-03-25T17:28:47.972Z,59.10
2023-03-25T17:31:18.689Z,60.00
2023-03-25T17:33:58.377Z,61.30
2023-03-25T17:36:26.339Z,61.80
2023-03-25T17:38:53.995Z,62.40
2023-03-25T17:41:21.760Z,63.20
2023-03-25T17:43:54.899Z,64.10
2023-03-25T17:46:27.852Z,63.80
2023-03-25T17:48:57.736Z,64.30
2023-03-25T17:51:29.212Z,64.50
2023-03-25T17:53:57.332Z,65.30
2023-03-25T17:56:27.543Z,65.40
2023-03-25T17:59:03.901Z,65.60
2023-03-25T18:01:33.849Z,65.90
2023-03-25T18:04:01.879Z,65.80
2023-03-25T18:06:29.286Z,65.80
2023-03-25T18:08:56.953Z,65.80
2023-03-25T18:11:24.527Z,65.60
2023-03-25T18:13:52.167Z,65.30
2023-03-25T18:16:21.812Z,64.80
2023-03-25T18:18:50.072Z,64.70
2023-03-25T18:21:19.736Z,64.70
2023-03-25T18:23:51.685Z,64.80
2023-03-25T18:26:21.712Z,64.70
2023-03-25T18:28:53.879Z,64.50
2023-03-25T18:31:23.428Z,64.50
2023-03-25T18:33:54.645Z,64.30
2023-03-25T18:36:22.616Z,64.20
2023-03-25T18:38:54.485Z,63.90
2023-03-25T18:41:24.423Z,63.60
2023-03-25T18:43:54.340Z,63.70
2023-03-25T18:46:21.712Z,64.10
2023-03-25T18:48:49.170Z,63.90
2023-03-25T18:51:16.433Z,64.20
2023-03-25T18:53:47.280Z,64.30
2023-03-25T18:56:14.745Z,64.70
2023-03-25T18:58:42.009Z,64.40
2023-03-25T19:01:16.165Z,64.30
2023-03-25T19:03:43.743Z,64.40
2023-03-25T19:06:13.992Z,63.80
2023-03-25T19:08:44.400Z,63.60
2023-03-25T19:11:21.223Z,63.60
2023-03-25T19:13:52.468Z,63.90
2023-03-25T19:16:21.067Z,65.60
2023-03-25T19:18:51.253Z,66.20
2023-03-25T19:21:24.124Z,66.50
2023-03-25T19:23:52.331Z,67.10
2023-03-25T19:26:19.726Z,66.30
2023-03-25T19:28:47.000Z,66.20
2023-03-25T19:31:16.349Z,66.40
2023-03-25T19:33:46.123Z,66.30
2023-03-25T19:36:18.948Z,66.00
2023-03-25T19:38:53.123Z,65.60
2023-03-25T19:41:20.387Z,65.90
2023-03-25T19:43:47.828Z,65.50
2023-03-25T19:46:15.518Z,65.40
2023-03-25T19:48:42.810Z,64.90
2023-03-25T19:51:12.786Z,64.80
2023-03-25T19:53:42.346Z,64.80
2023-03-25T19:56:13.910Z,64.80
2023-03-25T19:58:42.241Z,64.60
2023-03-25T20:01:09.631Z,64.00
2023-03-25T20:03:41.289Z,64.10
2023-03-25T20:06:08.864Z,63.90
2023-03-25T20:08:41.118Z,63.90
2023-03-25T20:11:10.471Z,63.70
2023-03-25T20:13:38.102Z,63.60
2023-03-25T20:16:06.668Z,63.50
2023-03-25T20:18:34.110Z,63.40
2023-03-25T20:21:01.335Z,63.20
2023-03-25T20:23:28.630Z,63.20
2023-03-25T20:25:58.030Z,63.20
2023-03-25T20:28:27.892Z,63.10
2023-03-25T20:30:57.987Z,63.00
2023-03-25T20:33:28.209Z,62.90
2023-03-25T20:35:55.816Z,62.90
2023-03-25T20:38:23.376Z,63.00
2023-03-25T20:40:54.348Z,62.80
2023-03-25T20:43:24.122Z,62.80
2023-03-25T20:45:55.768Z,62.60
2023-03-25T20:48:25.421Z,62.60
2023-03-25T20:51:11.770Z,62.70
2023-03-25T20:53:40.542Z,62.70
2023-03-25T20:56:08.279Z,62.80
2023-03-25T20:58:35.689Z,62.90
2023-03-25T21:01:03.621Z,62.90
2023-03-25T21:03:31.757Z,63.00
2023-03-25T21:06:07.298Z,63.00
2023-03-25T21:08:40.694Z,62.70
2023-03-25T21:11:10.104Z,62.80
2023-03-25T21:13:37.569Z,62.70
2023-03-25T21:16:05.327Z,62.40
2023-03-25T21:18:33.087Z,62.30
2023-03-25T21:21:02.303Z,62.10
2023-03-25T21:23:32.223Z,62.30
2023-03-25T21:26:01.780Z,62.60
2023-03-25T21:28:33.310Z,62.50
2023-03-25T21:31:05.159Z,62.20
2023-03-25T21:33:36.443Z,62.10
2023-03-25T21:36:08.512Z,62.10
2023-03-25T21:38:36.707Z,62.20
2023-03-25T21:41:10.611Z,61.90
2023-03-25T21:43:42.197Z,61.80
2023-03-25T21:46:13.323Z,61.80
2023-03-25T21:48:45.016Z,61.20
2023-03-25T21:51:14.475Z,61.30
2023-03-25T21:53:45.030Z,61.20
2023-03-25T21:56:21.351Z,60.90
2023-03-25T21:58:51.671Z,60.60
2023-03-25T22:01:23.235Z,60.50
2023-03-25T22:03:54.258Z,60.30
2023-03-25T22:06:26.949Z,60.30
2023-03-25T22:08:56.968Z,60.00
2023-03-25T22:11:29.773Z,59.90
2023-03-25T22:13:57.464Z,59.70
2023-03-25T22:16:26.652Z,59.70
2023-03-25T22:18:54.011Z,59.70
2023-03-25T22:21:26.993Z,59.60
2023-03-25T22:23:55.845Z,59.50
2023-03-25T22:26:24.662Z,59.60
2023-03-25T22:29:00.640Z,59.60
2023-03-25T22:31:33.661Z,59.30
2023-03-25T22:34:07.299Z,59.20
2023-03-25T22:36:41.628Z,59.30
2023-03-25T22:39:10.371Z,59.20
2023-03-25T22:41:38.130Z,59.10
2023-03-25T22:44:05.879Z,58.90
2023-03-25T22:46:33.969Z,58.80
2023-03-25T22:49:01.355Z,58.60
2023-03-25T22:51:28.918Z,58.40
2023-03-25T22:53:56.313Z,59.10
2023-03-25T22:56:25.837Z,58.60
2023-03-25T22:58:54.676Z,58.50
2023-03-25T23:01:25.015Z,58.40
2023-03-25T23:03:53.922Z,58.20
2023-03-25T23:06:21.695Z,58.20
2023-03-25T23:08:56.761Z,58.20
2023-03-25T23:11:28.376Z,58.00
2023-03-25T23:14:02.048Z,58.00
2023-03-25T23:16:34.642Z,58.00
2023-03-25T23:19:05.824Z,58.00
2023-03-25T23:21:36.568Z,57.90
2023-03-25T23:24:06.918Z,57.80
2023-03-25T23:26:41.179Z,57.80
2023-03-25T23:29:13.324Z,58.10
2023-03-25T23:31:43.354Z,58.10
2023-03-25T23:34:16.011Z,57.90
2023-03-25T23:36:43.833Z,58.20
2023-03-25T23:39:17.118Z,58.50
2023-03-25T23:41:44.596Z,58.40
2023-03-25T23:44:13.249Z,58.50
2023-03-25T23:46:41.764Z,58.60
2023-03-25T23:49:12.289Z,58.80
2023-03-25T23:51:41.483Z,58.70
2023-03-25T23:54:12.098Z,58.70
2023-03-25T23:56:43.116Z,58.40
2023-03-25T23:59:12.060Z,58.00
